Flat Rock, North Carolina
Current Conditions -  °F | °C
As of 4:54 AM on Sunday 25 Jan 2015 (Local Time) from KAVL Reporting Station
Clear Clear  
Wind Chill: 30°   Ceiling: Unl
Heat Index: 30°   Visibility: 10mi
Dew Point: 24°   Wind: 3mph
Humidity: 79%   Direction: 170°S
Pressure: 29.88"   Gusts: NA
Location:  35.27°N, 82.44°W
Report Text: KAVL 250954Z AUTO 17003KT 10SM CLR M01/M04 A2988 RMK AO2 SLP125 T10111044
Loading
Personal Weather Stations






























Interactive Weather Map New forecast layout! Learn more

10-Day Weather Forecast

Advertisements
Track Severe Weather on mobile